• Join FlightAware (Why Join?)
  • Login
  • US Flag 
03:23AM EST


 

Airport Tracker/Info


-or-


 

Live Flight TrackerFlight Track Log ✈ GJS3710 ✈ 18-Aug-2013 ✈ KPHL - KORD

Flight Track Log - Related Links

Times and Time Zones

All times are in EDT time to prevent confusion due to time zone crossing. See the GJS3710 flight status page for this flight to view local times or setup timezone preferences in your user account.

Time Position Orientation Groundspeed Altitude Reporting Facility
EDT Latitude Longitude Course Direction KTS MPH feet Rate Location/Type
12:30PM 39.9000 -75.1500 68° East 201 231 3,100  Level Philadelphia TRACON
12:31PM 39.9500 -75.1333 14° North 211 243 5,500 2,100 Climbing Philadelphia TRACON
12:32PM 39.9500 -75.2167 270° West 267 307 7,100 2,040 Climbing Philadelphia TRACON
12:33PM 39.9333 -75.3333 259° West 288 331 9,900 1,380 Climbing Philadelphia TRACON
12:34PM 39.9336 -75.4381 270° West 326 375 10,000 180 Climbing New York Center
12:35PM 39.9250 -75.5511 264° West 346 398 10,300 1,500 Climbing New York Center
12:36PM 39.9172 -75.6886 266° West 351 404 13,000 2,340 Climbing New York Center
12:37PM 39.9144 -75.8022 268° West 351 404 15,000 2,100 Climbing New York Center
12:38PM 39.9156 -75.9242 271° West 346 398 17,200 1,860 Climbing New York Center
12:39PM 39.9094 -76.0617 267° West 346 398 18,800 1,440 Climbing New York Center
12:40PM 39.9097 -76.1889 270° West 351 404 20,100 1,260 Climbing New York Center
12:41PM 39.9106 -76.3108 271° West 362 417 21,400 1,260 Climbing New York Center
12:42PM 39.9186 -76.4469 274° West 372 428 22,700 1,140 Climbing New York Center
12:43PM 39.9244 -76.5800 273° West 372 428 23,700 960 Climbing New York Center
12:44PM 39.9281 -76.7183 272° West 377 434 24,700 1,020 Climbing New York Center
12:45PM 39.9356 -76.8572 274° West 388 447 25,800 1,140 Climbing New York Center
12:46PM 39.9386 -76.9983 272° West 388 447 27,000 1,020 Climbing New York Center
12:47PM 39.9458 -77.1397 274° West 388 447 27,900 840 Climbing New York Center
12:48PM 39.9506 -77.2811 273° West 388 447 28,700 840 Climbing New York Center
12:49PM 39.9619 -77.5386 273° West 387 445 30,200 840 Climbing Cleveland Center
12:50PM 39.9658 -77.6872 272° West 394 453 31,000 840 Climbing Cleveland Center
12:51PM 39.9714 -77.8333 273° West 399 459 31,900 900 Climbing Cleveland Center
12:52PM 39.9747 -77.9742 272° West 399 459 32,900 960 Climbing Cleveland Center
12:53PM 39.9781 -78.1178 272° West 399 459 33,900 960 Climbing Cleveland Center
12:54PM 39.9831 -78.2556 273° West 399 459 34,900 900 Climbing Cleveland Center
12:55PM 39.9811 -78.3803 269° West 394 453 35,700 900 Climbing Cleveland Center
12:56PM 39.9836 -78.5131 271° West 382 440 36,700 1,020 Climbing Cleveland Center
12:57PM 39.9861 -78.6403 272° West 371 427 37,800 600 Climbing Cleveland Center
12:58PM 39.9881 -78.7703 271° West 364 419 38,000 60 Climbing Cleveland Center
12:59PM 39.9922 -78.9031 272° West 369 425 38,000  Level Cleveland Center
01:00PM 39.9983 -79.0331 274° West 364 419 38,000  Level Cleveland Center
01:01PM 40.0000 -79.1631 271° West 364 419 38,000  Level Cleveland Center
01:02PM 40.0036 -79.2931 272° West 364 419 38,000  Level Cleveland Center
01:03PM 40.0050 -79.4203 271° West 364 419 38,000  Level Cleveland Center
01:04PM 40.0061 -79.5478 271° West 364 419 38,000  Level Cleveland Center
01:05PM 40.0094 -79.6858 272° West 359 413 38,000  Level Cleveland Center
01:06PM 40.0103 -79.8106 271° West 354 407 38,000  Level Cleveland Center
01:07PM 40.0111 -79.9381 271° West 354 407 38,000  Level Cleveland Center
01:08PM 40.0139 -80.0653 272° West 354 407 38,000  Level Cleveland Center
01:09PM 40.0144 -80.1956 270° West 354 407 38,000  Level Cleveland Center
01:10PM 40.0169 -80.3256 271° West 354 407 38,000  Level Cleveland Center
01:11PM 40.0169 -80.4558 270° West 360 414 38,000  Level Cleveland Center
01:12PM 40.0172 -80.5911 270° West 365 420 38,000  Level Cleveland Center
01:13PM 40.0192 -80.7242 271° West 365 420 38,000  Level Cleveland Center
01:15PM 40.0139 -80.9894 269° West 371 427 38,000  Level Indianapolis Center
01:16PM 40.0131 -81.1256 270° West 372 428 38,000  Level Indianapolis Center
01:17PM 40.0092 -81.2622 268° West 373 429 38,000  Level Indianapolis Center
01:18PM 40.0075 -81.3983 269° West 372 428 38,000  Level Indianapolis Center
01:20PM 40.0047 -81.5333 269° West 371 427 38,000  Level Indianapolis Center
01:21PM 40.0022 -81.6625 269° West 357 411 38,000  Level Indianapolis Center
01:22PM 40.0000 -81.8056 269° West 356 410 38,000  Level Indianapolis Center
01:23PM 39.9969 -81.9367 268° West 360 414 38,000  Level Indianapolis Center
01:24PM 39.9928 -82.0700 268° West 367 422 38,000  Level Indianapolis Center
01:25PM 39.9900 -82.2033 268° West 365 420 38,000  Level Indianapolis Center
01:26PM 39.9872 -82.3358 268° West 364 419 38,000  Level Indianapolis Center
01:27PM 39.9828 -82.4644 267° West 354 407 38,000  Level Indianapolis Center
01:28PM 39.9783 -82.5908 267° West 349 402 38,000  Level Indianapolis Center
01:29PM 39.9731 -82.7383 267° West 348 400 38,000  Level Indianapolis Center
01:30PM 39.9675 -82.8664 267° West 351 404 38,000  Level Indianapolis Center
01:31PM 39.9608 -82.9939 266° West 352 405 38,000  Level Indianapolis Center
01:32PM 39.9550 -83.1239 267° West 358 412 38,000  Level Indianapolis Center
01:33PM 39.9483 -83.2533 266° West 359 413 38,000  Level Indianapolis Center
01:34PM 39.9619 -83.3861 278° West 383 441 38,000  Level Indianapolis Center
01:35PM 40.0231 -83.5128 302° West 419 482 38,000  Level Indianapolis Center
01:36PM 40.1058 -83.6569 307° West 426 490 38,000  Level Indianapolis Center
01:37PM 40.1781 -83.7808 307° West 428 493 38,000 -60 Level Indianapolis Center
01:38PM 40.2508 -83.9056 307° West 429 494 37,900 -540 Descending Indianapolis Center
01:39PM 40.3239 -84.0319 307° West 433 498 37,000 -960 Descending Indianapolis Center
01:40PM 40.3972 -84.1583 307° West 433 498 36,000 -840 Descending Indianapolis Center
01:41PM 40.4714 -84.2886 307° West 442 509 35,400 -840 Descending Indianapolis Center
01:42PM 40.5467 -84.4217 307° West 449 517 34,300 -720 Descending Indianapolis Center
01:43PM 40.6364 -84.5794 307° West 458 527 34,000 -240 Descending Indianapolis Center
01:44PM 40.6778 -84.6517 307° West 457 526 34,000  Level Chicago Center
01:45PM 40.7489 -84.7892 304° West 456 525 34,000  Level Chicago Center
01:46PM 40.7869 -84.9461 288° West 452 520 34,000 -900 Level Chicago Center
01:47PM 40.8269 -85.1050 288° West 451 519 32,200 -1,800 Descending Chicago Center
01:48PM 40.8672 -85.2667 288° West 459 528 30,400 -1,800 Descending Chicago Center
01:49PM 40.9083 -85.4289 289° West 463 533 28,500 -2,160 Descending Chicago Center
01:50PM 40.9550 -85.6206 288° West 456 525 26,000 -2,160 Descending Chicago Center
01:51PM 40.9933 -85.7789 288° West 451 519 24,100 -1,260 Descending Chicago Center
01:52PM 41.0256 -85.9347 285° West 443 510 23,500 -780 Descending Chicago Center
01:53PM 41.0483 -86.0869 281° West 427 491 22,500 -1,020 Descending Chicago Center
01:54PM 41.0708 -86.2403 281° West 424 488 21,500 -1,320 Descending Chicago Center
01:55PM 41.1158 -86.3875 292° West 429 494 19,800 -1,740 Descending Chicago Center
01:56PM 41.1578 -86.5300 291° West 421 484 18,000 -1,800 Descending Chicago Center
01:57PM 41.2089 -86.6939 293° West 406 467 16,100 -1,800 Descending Chicago Center
01:58PM 41.2511 -86.8286 293° West 381 438 14,300 -1,740 Descending Chicago Center
01:59PM 41.2903 -86.9539 293° West 371 427 12,500 -1,620 Descending Chicago Center
02:00PM 41.3275 -87.0781 292° West 367 422 11,000 -780 Descending Chicago Center
02:01PM 41.3686 -87.1947 295° West 355 409 11,000  Level Chicago Center
02:02PM 41.4408 -87.2847 317° Northwest 362 417 11,000  Level Chicago Center
02:03PM 41.5311 -87.3908 319° Northwest 362 417 11,000  Level Chicago Center
02:04PM 41.6100 -87.4756 321° Northwest 367 422 11,000 -480 Level Chicago Center
02:05PM 41.6831 -87.5581 320° Northwest 351 404 10,100 -1,020 Descending Chicago Center
02:07PM 41.7425 -87.6258 320° Northwest 288 331 9,000 -1,080 Descending Chicago Center
02:08PM 41.8072 -87.6981 320° Northwest 256 295 7,900 -1,020 Descending Chicago Center
02:09PM 41.8189 -87.7819 281° West 235 270 7,000 -480 Descending Chicago Center
02:10PM 41.8175 -87.8569 269° West 209 241 7,000  Level Chicago Center
02:11PM 41.8172 -87.9336 270° West 208 239 7,000  Level Chicago Center
02:12PM 41.7847 -87.9894 232° Southwest 205 236 7,000  Level Chicago Center
02:13PM 41.7322 -88.0467 219° Southwest 203 234 7,000 -240 Level Chicago Center
02:14PM 41.7161 -88.1083 251° West 219 252 6,600 -660 Descending Chicago Center
02:15PM 41.7658 -88.1181 352° North 221 254 5,700 -1,140 Descending Chicago Center
02:16PM 41.8092 -88.0719 38° Northeast 205 236 4,300 -1,200 Descending Chicago Center
02:17PM 41.8492 -88.0231 42° Northeast 199 229 3,300 -1,080 Descending Chicago Center
02:18PM 41.8975 -87.9656 42° Northeast 196 226 2,100 -1,020 Descending Chicago Center
02:19PM 41.9306 -87.9269 41° Northeast 175 201 1,300 -480 Descending Chicago Center
02:20PM 41.9589 -87.8969 38° Northeast 168 193 1,200 -120 Descending Chicago Center